createdAt,value
2022-12-29T00:01:20.028Z,71.63
2022-12-29T00:03:50.143Z,71.58
2022-12-29T00:06:20.646Z,71.34
2022-12-29T00:08:50.698Z,71.75
2022-12-29T00:11:23.038Z,71.49
2022-12-29T00:14:13.974Z,71.77
2022-12-29T00:16:46.430Z,71.87
2022-12-29T00:19:36.333Z,71.32
2022-12-29T00:22:27.037Z,71.37
2022-12-29T00:25:03.410Z,71.68
2022-12-29T00:27:53.054Z,71.82
2022-12-29T00:30:44.258Z,71.83
2022-12-29T00:33:41.116Z,71.36
2022-12-29T00:36:34.789Z,72.20
2022-12-29T00:39:37.885Z,71.89
2022-12-29T00:42:29.197Z,72.14
2022-12-29T00:44:59.282Z,71.74
2022-12-29T00:47:29.437Z,71.72
2022-12-29T00:49:58.369Z,71.98
2022-12-29T00:52:28.305Z,72.02
2022-12-29T00:54:58.327Z,71.88
2022-12-29T00:57:28.682Z,71.83
2022-12-29T00:59:59.070Z,71.87
2022-12-29T01:02:30.070Z,72.05
2022-12-29T01:05:00.624Z,71.98
2022-12-29T01:07:31.104Z,72.31
2022-12-29T01:10:16.099Z,72.63
2022-12-29T01:12:46.591Z,72.35
2022-12-29T01:15:17.181Z,72.13
2022-12-29T01:17:48.653Z,72.13
2022-12-29T01:20:18.823Z,72.16
2022-12-29T01:22:49.510Z,72.37
2022-12-29T01:25:23.168Z,72.42
2022-12-29T01:27:53.432Z,72.39
2022-12-29T01:30:23.527Z,72.48
2022-12-29T01:32:57.034Z,72.58
2022-12-29T01:35:27.658Z,72.35
2022-12-29T01:37:57.763Z,72.40
2022-12-29T01:40:28.045Z,72.45
2022-12-29T01:42:58.371Z,72.47
2022-12-29T01:45:28.709Z,72.37
2022-12-29T01:48:05.462Z,72.61
2022-12-29T01:50:45.440Z,72.11
2022-12-29T01:53:20.033Z,71.95
2022-12-29T01:56:01.966Z,72.16
2022-12-29T01:58:39.363Z,71.94
2022-12-29T02:01:09.875Z,71.94
2022-12-29T02:03:40.355Z,72.46
2022-12-29T02:06:35.667Z,72.21
2022-12-29T02:09:06.021Z,71.80
2022-12-29T02:11:36.980Z,72.33
2022-12-29T02:14:15.121Z,71.72
2022-12-29T02:16:53.204Z,71.90
2022-12-29T02:20:03.097Z,72.19
2022-12-29T02:22:40.698Z,72.16
2022-12-29T02:25:35.126Z,72.27
2022-12-29T02:28:53.974Z,72.22
2022-12-29T02:31:37.961Z,72.09
2022-12-29T02:34:32.790Z,72.13
2022-12-29T02:37:32.297Z,72.02
2022-12-29T02:40:29.390Z,71.59
2022-12-29T02:43:04.756Z,72.09
2022-12-29T02:45:47.587Z,71.70
2022-12-29T02:48:24.255Z,72.02
2022-12-29T02:51:28.613Z,71.38
2022-12-29T02:54:19.341Z,71.82
2022-12-29T02:56:49.823Z,71.40
2022-12-29T02:59:20.624Z,71.52
2022-12-29T03:02:18.591Z,71.86
2022-12-29T03:05:23.324Z,71.65
2022-12-29T03:08:26.925Z,71.33
2022-12-29T03:11:33.195Z,71.93
2022-12-29T03:14:39.229Z,71.46
2022-12-29T03:17:31.477Z,71.67
2022-12-29T03:20:11.746Z,71.25
2022-12-29T03:22:50.719Z,71.91
2022-12-29T03:25:34.943Z,71.13
2022-12-29T03:28:14.366Z,71.59
2022-12-29T03:30:48.676Z,71.82
2022-12-29T03:33:24.710Z,71.89
2022-12-29T03:36:00.604Z,71.31
2022-12-29T03:38:42.601Z,71.81
2022-12-29T03:41:18.525Z,71.06
2022-12-29T03:43:49.498Z,71.47
2022-12-29T03:46:19.530Z,71.97
2022-12-29T03:48:50.514Z,71.50
2022-12-29T03:51:20.653Z,71.50
2022-12-29T03:53:50.706Z,71.34
2022-12-29T03:56:20.890Z,71.76
2022-12-29T03:58:51.374Z,71.66
2022-12-29T04:01:48.433Z,70.92
2022-12-29T04:04:19.001Z,71.22
2022-12-29T04:06:50.391Z,71.21
2022-12-29T04:09:20.492Z,71.16
2022-12-29T04:11:51.740Z,71.10
2022-12-29T04:14:21.681Z,71.04
2022-12-29T04:16:51.628Z,71.58
2022-12-29T04:19:21.822Z,70.83
2022-12-29T04:21:51.908Z,71.39
2022-12-29T04:24:22.472Z,71.41
2022-12-29T04:26:53.914Z,70.98
2022-12-29T04:29:43.772Z,70.69
2022-12-29T04:32:37.852Z,70.99
2022-12-29T04:35:09.176Z,70.57
2022-12-29T04:37:39.272Z,70.96
2022-12-29T04:40:10.266Z,70.64
2022-12-29T04:42:40.342Z,70.50
2022-12-29T04:45:11.667Z,70.78
2022-12-29T04:48:12.501Z,70.56
2022-12-29T04:50:51.285Z,70.77
2022-12-29T04:53:23.123Z,70.66
2022-12-29T04:55:56.413Z,70.82
2022-12-29T04:58:26.374Z,70.94
2022-12-29T05:00:57.335Z,70.82
2022-12-29T05:03:30.204Z,71.10
2022-12-29T05:06:00.889Z,70.82
2022-12-29T05:08:31.115Z,71.11
2022-12-29T05:11:03.284Z,71.76
2022-12-29T05:13:33.277Z,71.38
2022-12-29T05:16:04.372Z,71.65
2022-12-29T05:18:34.513Z,71.59
2022-12-29T05:21:04.655Z,71.62
2022-12-29T05:23:34.701Z,72.10
2022-12-29T05:26:09.622Z,72.28
2022-12-29T05:29:08.803Z,72.18
2022-12-29T05:31:39.031Z,71.93
2022-12-29T05:34:11.000Z,72.29
2022-12-29T05:36:44.648Z,71.77
2022-12-29T05:39:14.791Z,72.29
2022-12-29T05:41:46.632Z,72.46
2022-12-29T05:44:19.195Z,72.30
2022-12-29T05:46:56.389Z,72.18
2022-12-29T05:49:53.887Z,72.60
2022-12-29T05:52:33.461Z,72.96
2022-12-29T05:55:03.888Z,72.47
2022-12-29T05:57:35.051Z,72.16
2022-12-29T06:00:13.076Z,72.31
2022-12-29T06:02:47.999Z,71.87
2022-12-29T06:05:19.607Z,72.22
2022-12-29T06:07:50.029Z,72.28
2022-12-29T06:10:21.085Z,72.59
2022-12-29T06:12:58.004Z,72.57
2022-12-29T06:15:28.280Z,72.58
2022-12-29T06:17:58.649Z,72.40
2022-12-29T06:20:29.431Z,72.42
2022-12-29T06:22:59.500Z,72.05
2022-12-29T06:25:32.291Z,72.53
2022-12-29T06:28:04.170Z,72.71
2022-12-29T06:30:34.515Z,72.35
2022-12-29T06:33:05.842Z,73.01
2022-12-29T06:35:36.719Z,72.71
2022-12-29T06:38:07.450Z,72.58
2022-12-29T06:40:37.691Z,72.63
2022-12-29T06:43:41.545Z,72.50
2022-12-29T06:46:50.310Z,73.10
2022-12-29T06:49:20.815Z,73.25
2022-12-29T06:51:50.829Z,73.65
2022-12-29T06:54:21.099Z,73.29
2022-12-29T06:56:51.272Z,73.30
2022-12-29T06:59:21.721Z,73.33
2022-12-29T07:01:52.696Z,73.13
2022-12-29T07:04:23.337Z,73.05
2022-12-29T07:06:53.480Z,72.60
2022-12-29T07:09:23.569Z,72.72
2022-12-29T07:11:54.061Z,72.75
2022-12-29T07:14:24.460Z,72.61
2022-12-29T07:16:55.002Z,72.95
2022-12-29T07:19:25.086Z,72.92
2022-12-29T07:21:56.478Z,72.62
2022-12-29T07:24:27.175Z,72.00
2022-12-29T07:26:57.439Z,71.81
2022-12-29T07:29:27.439Z,71.75
2022-12-29T07:31:57.843Z,71.59
2022-12-29T07:34:28.267Z,71.98
2022-12-29T07:36:58.300Z,71.98
2022-12-29T07:39:27.897Z,71.75
2022-12-29T07:42:04.307Z,71.40
2022-12-29T07:44:43.361Z,71.16
2022-12-29T07:47:20.425Z,70.80
2022-12-29T07:49:51.729Z,70.88
2022-12-29T07:52:22.051Z,71.12
2022-12-29T07:54:52.078Z,71.43
2022-12-29T07:57:25.143Z,71.37
2022-12-29T08:00:00.062Z,71.14
2022-12-29T08:02:30.177Z,71.49
2022-12-29T08:05:00.693Z,71.47
2022-12-29T08:07:30.743Z,71.41
2022-12-29T08:10:00.839Z,71.46
2022-12-29T08:12:31.244Z,71.15
2022-12-29T08:15:00.865Z,70.88
2022-12-29T08:17:30.962Z,71.36
2022-12-29T08:20:01.205Z,71.38
2022-12-29T08:22:31.656Z,71.57
2022-12-29T08:25:01.816Z,71.24
2022-12-29T08:27:32.021Z,71.13
2022-12-29T08:30:02.064Z,71.02
2022-12-29T08:32:32.234Z,71.07
2022-12-29T08:35:02.364Z,71.27
2022-12-29T08:37:34.871Z,71.03
2022-12-29T08:40:05.780Z,71.03
2022-12-29T08:42:35.929Z,71.03
2022-12-29T08:45:06.158Z,71.06
2022-12-29T08:47:36.200Z,70.72
2022-12-29T08:50:06.992Z,70.67
2022-12-29T08:52:37.524Z,70.17
2022-12-29T08:55:07.842Z,70.10
2022-12-29T08:57:37.506Z,69.71
2022-12-29T09:00:13.875Z,69.46
2022-12-29T09:02:44.392Z,69.64
2022-12-29T09:05:14.845Z,70.31
2022-12-29T09:07:47.676Z,70.01
2022-12-29T09:10:17.655Z,69.38
2022-12-29T09:12:48.246Z,68.82
2022-12-29T09:15:18.032Z,68.38
2022-12-29T09:17:48.496Z,68.10
2022-12-29T09:20:20.343Z,67.95
2022-12-29T09:22:50.817Z,67.12
2022-12-29T09:25:20.336Z,67.19
2022-12-29T09:27:55.368Z,66.19
2022-12-29T09:30:26.640Z,65.53
2022-12-29T09:32:57.064Z,66.19
2022-12-29T09:35:27.309Z,65.73
2022-12-29T09:37:57.654Z,63.83
2022-12-29T09:40:33.734Z,64.25
2022-12-29T09:43:22.907Z,63.91
2022-12-29T09:46:34.569Z,63.79
2022-12-29T09:49:32.586Z,63.71
2022-12-29T09:52:08.144Z,63.85
2022-12-29T09:55:02.954Z,63.87
2022-12-29T09:57:42.373Z,63.30
2022-12-29T10:00:23.208Z,63.69
2022-12-29T10:03:00.282Z,63.06
2022-12-29T10:05:51.839Z,62.19
2022-12-29T10:08:31.070Z,62.77
2022-12-29T10:11:45.722Z,62.97
2022-12-29T10:14:40.567Z,62.25
2022-12-29T10:17:36.375Z,61.78
2022-12-29T10:20:54.196Z,61.13
2022-12-29T10:23:31.060Z,60.66
2022-12-29T10:26:04.400Z,60.62
2022-12-29T10:28:54.750Z,60.70
2022-12-29T10:31:31.053Z,60.03
2022-12-29T10:34:07.335Z,59.16
2022-12-29T10:36:44.899Z,58.85
2022-12-29T10:39:56.872Z,58.58
2022-12-29T10:42:38.813Z,58.72
2022-12-29T10:45:16.622Z,57.70
2022-12-29T10:48:27.193Z,57.31
2022-12-29T10:51:07.135Z,56.06
2022-12-29T10:53:53.182Z,55.59
2022-12-29T10:56:37.407Z,54.00
2022-12-29T10:59:24.397Z,54.48
2022-12-29T11:02:00.699Z,54.44
2022-12-29T11:04:54.864Z,54.18
2022-12-29T11:07:27.243Z,53.90
2022-12-29T11:10:17.282Z,53.55
2022-12-29T11:13:29.045Z,52.69
2022-12-29T11:16:02.128Z,51.65
2022-12-29T11:18:43.985Z,51.92
2022-12-29T11:21:49.516Z,51.19
2022-12-29T11:24:27.626Z,50.61
2022-12-29T11:27:34.447Z,50.93
2022-12-29T11:30:23.729Z,50.16
2022-12-29T11:32:55.857Z,50.02
2022-12-29T11:35:52.397Z,50.03
2022-12-29T11:38:33.950Z,49.05
2022-12-29T11:41:05.595Z,49.57
2022-12-29T11:43:45.980Z,49.04
2022-12-29T11:46:20.694Z,48.45
2022-12-29T11:48:51.444Z,49.02
2022-12-29T11:51:47.619Z,47.91
2022-12-29T11:54:31.612Z,46.96
2022-12-29T11:57:15.946Z,46.41
2022-12-29T11:59:52.817Z,47.23
2022-12-29T12:02:42.935Z,48.32
2022-12-29T12:05:40.673Z,47.88
2022-12-29T12:08:36.093Z,48.45
2022-12-29T12:11:23.678Z,48.85
2022-12-29T12:14:19.556Z,48.91
2022-12-29T12:17:40.017Z,49.87
2022-12-29T12:20:49.320Z,49.73
2022-12-29T12:23:31.650Z,49.36
2022-12-29T12:26:39.715Z,49.33
2022-12-29T12:29:29.668Z,48.83
2022-12-29T12:32:21.210Z,48.36
2022-12-29T12:34:51.532Z,48.07
2022-12-29T12:37:38.804Z,47.81
2022-12-29T12:40:32.934Z,47.52
2022-12-29T12:43:20.710Z,47.29
2022-12-29T12:46:35.157Z,47.35
2022-12-29T12:49:32.335Z,46.61
2022-12-29T12:52:19.577Z,46.83
2022-12-29T12:55:14.210Z,47.17
2022-12-29T12:58:05.383Z,47.11
2022-12-29T13:01:02.109Z,47.84
2022-12-29T13:04:14.676Z,48.27
2022-12-29T13:07:00.033Z,47.99
2022-12-29T13:09:50.961Z,47.32
2022-12-29T13:12:45.697Z,48.09
2022-12-29T13:15:23.996Z,47.76
2022-12-29T13:18:09.060Z,47.43
2022-12-29T13:20:47.760Z,47.20
2022-12-29T13:23:37.008Z,46.77
2022-12-29T13:26:17.174Z,46.60
2022-12-29T13:28:58.629Z,46.69
2022-12-29T13:32:01.002Z,47.03
2022-12-29T13:35:03.637Z,47.29
2022-12-29T13:37:38.383Z,47.20
2022-12-29T13:40:22.798Z,47.22
2022-12-29T13:43:01.637Z,47.14
2022-12-29T13:45:35.130Z,46.83
2022-12-29T13:48:17.075Z,47.27
2022-12-29T13:50:54.449Z,47.71
2022-12-29T13:53:32.077Z,48.41
2022-12-29T13:56:05.958Z,49.08
2022-12-29T13:59:13.384Z,49.57
2022-12-29T14:02:16.864Z,50.74
2022-12-29T14:05:05.488Z,51.34
2022-12-29T14:07:40.150Z,51.83
2022-12-29T14:10:31.307Z,52.15
2022-12-29T14:13:27.286Z,52.95
2022-12-29T14:16:00.346Z,53.12
2022-12-29T14:18:34.211Z,53.57
2022-12-29T14:21:11.529Z,53.78
2022-12-29T14:23:45.437Z,54.02
2022-12-29T14:26:20.273Z,54.16
2022-12-29T14:28:51.072Z,54.68
2022-12-29T14:31:21.513Z,54.85
2022-12-29T14:34:13.006Z,54.93
2022-12-29T14:37:03.485Z,54.95
2022-12-29T14:39:46.919Z,55.32
2022-12-29T14:42:24.264Z,55.74
2022-12-29T14:45:28.252Z,56.01
2022-12-29T14:48:01.449Z,55.99
2022-12-29T14:50:45.600Z,56.10
2022-12-29T14:53:42.437Z,56.07
2022-12-29T14:56:19.599Z,56.40
2022-12-29T14:58:55.273Z,56.69
2022-12-29T15:01:33.411Z,56.73
2022-12-29T15:04:36.372Z,56.72
2022-12-29T15:07:10.531Z,57.29
2022-12-29T15:09:52.738Z,57.53
2022-12-29T15:12:31.506Z,58.06
2022-12-29T15:15:02.883Z,58.41
2022-12-29T15:17:35.809Z,58.73
2022-12-29T15:20:30.456Z,58.76
2022-12-29T15:23:12.059Z,59.61
2022-12-29T15:26:22.817Z,59.58
2022-12-29T15:28:56.094Z,59.17
2022-12-29T15:31:30.450Z,59.37
2022-12-29T15:34:30.438Z,59.20
2022-12-29T15:37:00.922Z,59.52
2022-12-29T15:39:33.017Z,60.32
2022-12-29T15:42:29.872Z,59.81
2022-12-29T15:45:10.319Z,60.49
2022-12-29T15:47:45.131Z,61.20
2022-12-29T15:50:38.554Z,61.09
2022-12-29T15:53:14.208Z,61.30
2022-12-29T15:55:45.686Z,61.98
2022-12-29T15:58:25.995Z,61.83
2022-12-29T16:00:59.548Z,61.81
2022-12-29T16:03:39.165Z,61.97
2022-12-29T16:06:26.573Z,62.13
2022-12-29T16:09:01.648Z,62.01
2022-12-29T16:11:40.081Z,62.25
2022-12-29T16:14:24.344Z,62.81
2022-12-29T16:16:54.002Z,62.98
2022-12-29T16:19:31.052Z,63.07
2022-12-29T16:22:04.037Z,64.24
2022-12-29T16:24:35.150Z,64.61
2022-12-29T16:27:33.250Z,64.30
2022-12-29T16:30:07.140Z,64.03
2022-12-29T16:32:48.458Z,64.16
2022-12-29T16:35:49.874Z,64.69
2022-12-29T16:38:23.808Z,64.64
2022-12-29T16:40:59.125Z,64.69
2022-12-29T16:43:39.479Z,64.53
2022-12-29T16:46:31.885Z,65.02
2022-12-29T16:49:02.012Z,65.18
2022-12-29T16:51:36.933Z,65.30
2022-12-29T16:54:07.161Z,65.09
2022-12-29T16:56:37.893Z,65.60
2022-12-29T16:59:34.798Z,65.59
2022-12-29T17:02:15.109Z,66.02
2022-12-29T17:04:49.782Z,66.32
2022-12-29T17:07:22.344Z,66.15
2022-12-29T17:09:54.640Z,66.64
2022-12-29T17:12:29.430Z,66.79
2022-12-29T17:15:02.565Z,66.85
2022-12-29T17:17:39.888Z,66.55
2022-12-29T17:20:31.006Z,66.71
2022-12-29T17:23:00.697Z,67.32
2022-12-29T17:25:38.031Z,66.99
2022-12-29T17:28:25.841Z,67.58
2022-12-29T17:31:00.911Z,67.65
2022-12-29T17:33:37.804Z,67.70
2022-12-29T17:36:10.045Z,67.38
2022-12-29T17:38:40.371Z,67.35
2022-12-29T17:41:15.251Z,67.31
2022-12-29T17:43:46.308Z,67.13
2022-12-29T17:46:16.704Z,67.38
2022-12-29T17:48:53.302Z,67.49
2022-12-29T17:51:24.842Z,67.56
2022-12-29T17:53:55.161Z,67.77
2022-12-29T17:56:27.681Z,67.67
2022-12-29T17:58:57.468Z,68.02
2022-12-29T18:01:32.552Z,67.87
